sensor_id;sensor_type;location;lat;lon;timestamp;P1;durP1;ratioP1;P2;durP2;ratioP2
68825;SDS011;55841;53.392;10.086;2022-08-18T00:04:35;10.10;;;4.68;;
68825;SDS011;55841;53.392;10.086;2022-08-18T00:07:01;9.20;;;4.30;;
68825;SDS011;55841;53.392;10.086;2022-08-18T00:09:26;10.23;;;4.50;;
68825;SDS011;55841;53.392;10.086;2022-08-18T00:11:52;10.15;;;4.45;;
68825;SDS011;55841;53.392;10.086;2022-08-18T00:14:19;9.93;;;4.50;;
68825;SDS011;55841;53.392;10.086;2022-08-18T00:16:45;9.63;;;4.28;;
68825;SDS011;55841;53.392;10.086;2022-08-18T00:19:11;10.10;;;4.45;;
68825;SDS011;55841;53.392;10.086;2022-08-18T00:21:37;9.63;;;4.35;;
68825;SDS011;55841;53.392;10.086;2022-08-18T00:24:03;9.50;;;4.22;;
68825;SDS011;55841;53.392;10.086;2022-08-18T00:26:29;9.50;;;3.95;;
68825;SDS011;55841;53.392;10.086;2022-08-18T00:28:54;8.68;;;4.13;;
68825;SDS011;55841;53.392;10.086;2022-08-18T00:31:20;9.30;;;4.15;;
68825;SDS011;55841;53.392;10.086;2022-08-18T00:33:45;8.90;;;4.00;;
68825;SDS011;55841;53.392;10.086;2022-08-18T00:36:11;9.70;;;4.05;;
68825;SDS011;55841;53.392;10.086;2022-08-18T00:38:36;10.55;;;4.05;;
68825;SDS011;55841;53.392;10.086;2022-08-18T00:43:39;12.23;;;4.30;;
68825;SDS011;55841;53.392;10.086;2022-08-18T00:46:08;9.95;;;4.60;;
68825;SDS011;55841;53.392;10.086;2022-08-18T00:48:39;9.95;;;4.00;;
68825;SDS011;55841;53.392;10.086;2022-08-18T00:51:09;10.20;;;4.05;;
68825;SDS011;55841;53.392;10.086;2022-08-18T00:53:45;10.50;;;4.22;;
68825;SDS011;55841;53.392;10.086;2022-08-18T00:56:25;9.43;;;4.25;;
68825;SDS011;55841;53.392;10.086;2022-08-18T00:58:56;10.85;;;5.00;;
68825;SDS011;55841;53.392;10.086;2022-08-18T01:01:28;11.60;;;5.35;;
68825;SDS011;55841;53.392;10.086;2022-08-18T01:03:57;10.25;;;4.97;;
68825;SDS011;55841;53.392;10.086;2022-08-18T01:06:38;9.30;;;4.40;;
68825;SDS011;55841;53.392;10.086;2022-08-18T01:09:10;14.57;;;4.90;;
68825;SDS011;55841;53.392;10.086;2022-08-18T01:11:36;9.45;;;4.60;;
68825;SDS011;55841;53.392;10.086;2022-08-18T01:14:03;10.40;;;4.43;;
68825;SDS011;55841;53.392;10.086;2022-08-18T01:16:31;8.75;;;3.92;;
68825;SDS011;55841;53.392;10.086;2022-08-18T01:18:56;11.45;;;4.47;;
68825;SDS011;55841;53.392;10.086;2022-08-18T01:21:23;9.73;;;4.00;;
68825;SDS011;55841;53.392;10.086;2022-08-18T01:23:53;10.23;;;4.45;;
68825;SDS011;55841;53.392;10.086;2022-08-18T01:26:20;10.45;;;4.75;;
68825;SDS011;55841;53.392;10.086;2022-08-18T01:28:48;9.88;;;4.75;;
68825;SDS011;55841;53.392;10.086;2022-08-18T01:31:36;13.30;;;5.00;;
68825;SDS011;55841;53.392;10.086;2022-08-18T01:34:01;10.13;;;4.55;;
68825;SDS011;55841;53.392;10.086;2022-08-18T01:36:28;13.48;;;5.30;;
68825;SDS011;55841;53.392;10.086;2022-08-18T01:38:55;10.73;;;4.80;;
68825;SDS011;55841;53.392;10.086;2022-08-18T01:41:21;11.82;;;4.82;;
68825;SDS011;55841;53.392;10.086;2022-08-18T01:43:47;14.48;;;5.82;;
68825;SDS011;55841;53.392;10.086;2022-08-18T01:46:16;12.65;;;5.05;;
68825;SDS011;55841;53.392;10.086;2022-08-18T01:48:43;15.82;;;5.20;;
68825;SDS011;55841;53.392;10.086;2022-08-18T01:51:09;11.90;;;4.88;;
68825;SDS011;55841;53.392;10.086;2022-08-18T01:53:35;12.75;;;5.07;;
68825;SDS011;55841;53.392;10.086;2022-08-18T01:56:01;12.98;;;5.20;;
68825;SDS011;55841;53.392;10.086;2022-08-18T01:58:27;11.57;;;5.20;;
68825;SDS011;55841;53.392;10.086;2022-08-18T02:00:53;12.20;;;5.38;;
68825;SDS011;55841;53.392;10.086;2022-08-18T02:03:20;9.90;;;4.63;;
68825;SDS011;55841;53.392;10.086;2022-08-18T02:05:46;10.60;;;5.15;;
68825;SDS011;55841;53.392;10.086;2022-08-18T02:08:14;10.48;;;4.95;;
68825;SDS011;55841;53.392;10.086;2022-08-18T02:10:40;11.73;;;4.88;;
68825;SDS011;55841;53.392;10.086;2022-08-18T02:13:06;11.85;;;5.10;;
68825;SDS011;55841;53.392;10.086;2022-08-18T02:17:57;11.98;;;5.03;;
68825;SDS011;55841;53.392;10.086;2022-08-18T02:20:23;14.63;;;5.05;;
68825;SDS011;55841;53.392;10.086;2022-08-18T02:22:49;11.57;;;5.55;;
68825;SDS011;55841;53.392;10.086;2022-08-18T02:25:15;10.18;;;4.70;;
68825;SDS011;55841;53.392;10.086;2022-08-18T02:27:42;11.93;;;4.63;;
68825;SDS011;55841;53.392;10.086;2022-08-18T02:30:10;11.18;;;5.05;;
68825;SDS011;55841;53.392;10.086;2022-08-18T02:32:38;10.93;;;5.10;;
68825;SDS011;55841;53.392;10.086;2022-08-18T02:35:04;12.55;;;5.30;;
68825;SDS011;55841;53.392;10.086;2022-08-18T02:37:31;11.60;;;5.13;;
68825;SDS011;55841;53.392;10.086;2022-08-18T02:39:57;11.40;;;5.55;;
68825;SDS011;55841;53.392;10.086;2022-08-18T02:42:23;10.60;;;5.32;;
68825;SDS011;55841;53.392;10.086;2022-08-18T02:44:48;12.05;;;5.00;;
68825;SDS011;55841;53.392;10.086;2022-08-18T02:47:18;11.57;;;5.40;;
68825;SDS011;55841;53.392;10.086;2022-08-18T02:49:44;11.68;;;5.53;;
68825;SDS011;55841;53.392;10.086;2022-08-18T02:52:10;11.57;;;5.93;;
68825;SDS011;55841;53.392;10.086;2022-08-18T02:54:36;10.27;;;5.13;;
68825;SDS011;55841;53.392;10.086;2022-08-18T02:57:09;12.23;;;5.55;;
68825;SDS011;55841;53.392;10.086;2022-08-18T02:59:36;10.85;;;5.10;;
68825;SDS011;55841;53.392;10.086;2022-08-18T03:02:04;12.05;;;5.55;;
68825;SDS011;55841;53.392;10.086;2022-08-18T03:04:30;11.57;;;5.78;;
68825;SDS011;55841;53.392;10.086;2022-08-18T03:06:56;13.13;;;5.57;;
68825;SDS011;55841;53.392;10.086;2022-08-18T03:09:24;12.15;;;5.85;;
68825;SDS011;55841;53.392;10.086;2022-08-18T03:11:49;18.75;;;5.57;;
68825;SDS011;55841;53.392;10.086;2022-08-18T03:14:15;11.30;;;5.40;;
68825;SDS011;55841;53.392;10.086;2022-08-18T03:16:43;11.95;;;5.68;;
68825;SDS011;55841;53.392;10.086;2022-08-18T03:19:10;11.68;;;5.22;;
68825;SDS011;55841;53.392;10.086;2022-08-18T03:21:36;10.43;;;5.05;;
68825;SDS011;55841;53.392;10.086;2022-08-18T03:24:03;12.00;;;5.65;;
68825;SDS011;55841;53.392;10.086;2022-08-18T03:26:29;11.45;;;5.50;;
68825;SDS011;55841;53.392;10.086;2022-08-18T03:28:56;11.18;;;5.20;;
68825;SDS011;55841;53.392;10.086;2022-08-18T03:31:23;12.40;;;6.10;;
68825;SDS011;55841;53.392;10.086;2022-08-18T03:33:51;11.05;;;5.22;;
68825;SDS011;55841;53.392;10.086;2022-08-18T03:36:20;11.30;;;5.57;;
68825;SDS011;55841;53.392;10.086;2022-08-18T03:38:47;10.55;;;5.47;;
68825;SDS011;55841;53.392;10.086;2022-08-18T03:41:14;9.75;;;5.05;;
68825;SDS011;55841;53.392;10.086;2022-08-18T03:43:41;9.65;;;4.57;;
68825;SDS011;55841;53.392;10.086;2022-08-18T03:46:08;12.15;;;5.55;;
68825;SDS011;55841;53.392;10.086;2022-08-18T03:48:35;10.82;;;5.10;;
68825;SDS011;55841;53.392;10.086;2022-08-18T03:51:03;13.38;;;5.00;;
68825;SDS011;55841;53.392;10.086;2022-08-18T03:53:30;12.48;;;5.15;;
68825;SDS011;55841;53.392;10.086;2022-08-18T03:55:55;11.50;;;4.72;;
68825;SDS011;55841;53.392;10.086;2022-08-18T03:58:21;10.65;;;5.15;;
68825;SDS011;55841;53.392;10.086;2022-08-18T04:00:46;12.05;;;5.50;;
68825;SDS011;55841;53.392;10.086;2022-08-18T04:03:12;12.05;;;5.85;;
68825;SDS011;55841;53.392;10.086;2022-08-18T04:05:38;11.93;;;5.50;;
68825;SDS011;55841;53.392;10.086;2022-08-18T04:08:04;11.52;;;5.25;;
68825;SDS011;55841;53.392;10.086;2022-08-18T04:10:30;13.25;;;5.00;;
68825;SDS011;55841;53.392;10.086;2022-08-18T04:12:55;11.90;;;5.53;;
68825;SDS011;55841;53.392;10.086;2022-08-18T04:15:21;12.30;;;5.90;;
68825;SDS011;55841;53.392;10.086;2022-08-18T04:17:46;12.88;;;6.03;;
68825;SDS011;55841;53.392;10.086;2022-08-18T04:20:12;12.48;;;5.47;;
68825;SDS011;55841;53.392;10.086;2022-08-18T04:22:38;11.32;;;5.78;;
68825;SDS011;55841;53.392;10.086;2022-08-18T04:27:30;13.95;;;5.80;;
68825;SDS011;55841;53.392;10.086;2022-08-18T04:29:55;13.27;;;6.00;;
68825;SDS011;55841;53.392;10.086;2022-08-18T04:32:21;16.15;;;7.40;;
68825;SDS011;55841;53.392;10.086;2022-08-18T04:34:48;11.65;;;6.43;;
68825;SDS011;55841;53.392;10.086;2022-08-18T04:37:13;11.35;;;5.72;;
68825;SDS011;55841;53.392;10.086;2022-08-18T04:42:05;12.57;;;5.75;;
68825;SDS011;55841;53.392;10.086;2022-08-18T04:44:31;12.30;;;6.00;;
68825;SDS011;55841;53.392;10.086;2022-08-18T04:46:59;14.07;;;6.03;;
68825;SDS011;55841;53.392;10.086;2022-08-18T04:49:25;13.45;;;5.65;;
68825;SDS011;55841;53.392;10.086;2022-08-18T04:51:52;12.10;;;5.53;;
68825;SDS011;55841;53.392;10.086;2022-08-18T04:54:18;12.98;;;6.05;;
68825;SDS011;55841;53.392;10.086;2022-08-18T04:56:44;11.73;;;6.15;;
68825;SDS011;55841;53.392;10.086;2022-08-18T04:59:11;12.15;;;5.38;;
68825;SDS011;55841;53.392;10.086;2022-08-18T05:01:39;12.45;;;5.55;;
68825;SDS011;55841;53.392;10.086;2022-08-18T05:04:09;11.52;;;5.78;;
68825;SDS011;55841;53.392;10.086;2022-08-18T05:06:35;11.23;;;5.90;;
68825;SDS011;55841;53.392;10.086;2022-08-18T05:09:02;13.20;;;6.53;;
68825;SDS011;55841;53.392;10.086;2022-08-18T05:11:30;15.23;;;7.30;;
68825;SDS011;55841;53.392;10.086;2022-08-18T05:13:57;14.30;;;6.93;;
68825;SDS011;55841;53.392;10.086;2022-08-18T05:16:23;13.43;;;6.97;;
68825;SDS011;55841;53.392;10.086;2022-08-18T05:18:49;11.55;;;6.25;;
68825;SDS011;55841;53.392;10.086;2022-08-18T05:21:15;12.63;;;6.90;;
68825;SDS011;55841;53.392;10.086;2022-08-18T05:23:41;13.32;;;6.45;;
68825;SDS011;55841;53.392;10.086;2022-08-18T05:26:08;14.88;;;7.57;;
68825;SDS011;55841;53.392;10.086;2022-08-18T05:28:34;14.80;;;8.32;;
68825;SDS011;55841;53.392;10.086;2022-08-18T05:31:05;17.45;;;8.63;;
68825;SDS011;55841;53.392;10.086;2022-08-18T05:33:34;14.20;;;7.95;;
68825;SDS011;55841;53.392;10.086;2022-08-18T05:36:00;14.80;;;8.02;;
68825;SDS011;55841;53.392;10.086;2022-08-18T05:38:39;17.05;;;7.97;;
68825;SDS011;55841;53.392;10.086;2022-08-18T05:41:19;13.68;;;7.35;;
68825;SDS011;55841;53.392;10.086;2022-08-18T05:43:50;13.43;;;8.20;;
68825;SDS011;55841;53.392;10.086;2022-08-18T05:46:16;16.73;;;8.10;;
68825;SDS011;55841;53.392;10.086;2022-08-18T05:48:42;15.82;;;8.23;;
68825;SDS011;55841;53.392;10.086;2022-08-18T05:51:10;13.23;;;7.20;;
68825;SDS011;55841;53.392;10.086;2022-08-18T05:53:50;15.85;;;7.25;;
68825;SDS011;55841;53.392;10.086;2022-08-18T05:56:16;12.88;;;7.15;;
68825;SDS011;55841;53.392;10.086;2022-08-18T05:58:49;15.05;;;7.60;;
68825;SDS011;55841;53.392;10.086;2022-08-18T06:01:19;15.02;;;7.30;;
68825;SDS011;55841;53.392;10.086;2022-08-18T06:06:19;15.32;;;7.90;;
68825;SDS011;55841;53.392;10.086;2022-08-18T06:08:51;17.58;;;8.82;;
68825;SDS011;55841;53.392;10.086;2022-08-18T06:11:25;17.30;;;9.55;;
68825;SDS011;55841;53.392;10.086;2022-08-18T06:13:50;18.52;;;10.55;;
68825;SDS011;55841;53.392;10.086;2022-08-18T06:16:18;21.75;;;11.38;;
68825;SDS011;55841;53.392;10.086;2022-08-18T06:25:02;24.17;;;13.65;;
68825;SDS011;55841;53.392;10.086;2022-08-18T06:30:21;24.17;;;13.13;;
68825;SDS011;55841;53.392;10.086;2022-08-18T06:35:46;28.65;;;16.65;;
68825;SDS011;55841;53.392;10.086;2022-08-18T06:40:42;32.92;;;17.38;;
68825;SDS011;55841;53.392;10.086;2022-08-18T06:43:08;39.17;;;19.83;;
68825;SDS011;55841;53.392;10.086;2022-08-18T06:45:38;34.08;;;18.38;;
68825;SDS011;55841;53.392;10.086;2022-08-18T06:48:15;36.65;;;18.65;;
68825;SDS011;55841;53.392;10.086;2022-08-18T06:50:58;38.70;;;19.70;;
68825;SDS011;55841;53.392;10.086;2022-08-18T06:56:21;39.15;;;19.95;;
68825;SDS011;55841;53.392;10.086;2022-08-18T06:58:49;41.03;;;20.45;;
68825;SDS011;55841;53.392;10.086;2022-08-18T07:01:15;35.88;;;19.38;;
68825;SDS011;55841;53.392;10.086;2022-08-18T07:03:43;42.03;;;21.10;;
68825;SDS011;55841;53.392;10.086;2022-08-18T07:08:45;40.58;;;19.67;;
68825;SDS011;55841;53.392;10.086;2022-08-18T07:11:23;39.67;;;18.45;;
68825;SDS011;55841;53.392;10.086;2022-08-18T07:13:57;40.40;;;19.95;;
68825;SDS011;55841;53.392;10.086;2022-08-18T07:16:43;34.60;;;18.10;;
68825;SDS011;55841;53.392;10.086;2022-08-18T07:19:10;36.58;;;17.60;;
68825;SDS011;55841;53.392;10.086;2022-08-18T07:21:40;36.35;;;16.88;;
68825;SDS011;55841;53.392;10.086;2022-08-18T07:24:07;34.50;;;17.55;;
68825;SDS011;55841;53.392;10.086;2022-08-18T07:27:02;37.95;;;18.40;;
68825;SDS011;55841;53.392;10.086;2022-08-18T07:29:34;35.60;;;18.17;;
68825;SDS011;55841;53.392;10.086;2022-08-18T07:32:04;32.90;;;17.58;;
68825;SDS011;55841;53.392;10.086;2022-08-18T07:34:41;35.67;;;18.48;;
68825;SDS011;55841;53.392;10.086;2022-08-18T07:37:18;34.95;;;18.05;;
68825;SDS011;55841;53.392;10.086;2022-08-18T07:39:56;38.15;;;18.58;;
68825;SDS011;55841;53.392;10.086;2022-08-18T07:45:02;40.20;;;19.88;;
68825;SDS011;55841;53.392;10.086;2022-08-18T07:50:18;39.95;;;19.73;;
68825;SDS011;55841;53.392;10.086;2022-08-18T07:52:48;40.58;;;21.90;;
68825;SDS011;55841;53.392;10.086;2022-08-18T08:00:48;36.72;;;18.67;;
68825;SDS011;55841;53.392;10.086;2022-08-18T08:06:04;34.95;;;17.70;;
68825;SDS011;55841;53.392;10.086;2022-08-18T08:08:44;37.45;;;17.08;;
68825;SDS011;55841;53.392;10.086;2022-08-18T08:19:50;35.70;;;18.63;;
68825;SDS011;55841;53.392;10.086;2022-08-18T08:34:26;36.10;;;19.33;;
68825;SDS011;55841;53.392;10.086;2022-08-18T08:37:16;36.65;;;18.17;;
68825;SDS011;55841;53.392;10.086;2022-08-18T08:39:52;37.78;;;18.50;;
68825;SDS011;55841;53.392;10.086;2022-08-18T08:42:24;33.05;;;17.58;;
68825;SDS011;55841;53.392;10.086;2022-08-18T08:45:13;34.65;;;18.33;;
68825;SDS011;55841;53.392;10.086;2022-08-18T08:48:06;35.58;;;17.67;;
68825;SDS011;55841;53.392;10.086;2022-08-18T08:53:11;36.10;;;18.23;;
68825;SDS011;55841;53.392;10.086;2022-08-18T08:56:05;32.72;;;17.27;;
68825;SDS011;55841;53.392;10.086;2022-08-18T08:58:35;34.05;;;18.23;;
68825;SDS011;55841;53.392;10.086;2022-08-18T09:01:21;37.25;;;19.45;;
68825;SDS011;55841;53.392;10.086;2022-08-18T09:07:14;34.60;;;17.95;;
68825;SDS011;55841;53.392;10.086;2022-08-18T09:10:06;33.10;;;16.25;;
68825;SDS011;55841;53.392;10.086;2022-08-18T09:18:53;27.67;;;15.07;;
68825;SDS011;55841;53.392;10.086;2022-08-18T09:24:25;25.80;;;12.82;;
68825;SDS011;55841;53.392;10.086;2022-08-18T09:29:52;30.33;;;14.90;;
68825;SDS011;55841;53.392;10.086;2022-08-18T09:37:38;28.25;;;15.00;;
68825;SDS011;55841;53.392;10.086;2022-08-18T09:40:18;31.58;;;15.43;;
68825;SDS011;55841;53.392;10.086;2022-08-18T09:42:47;28.83;;;15.32;;
68825;SDS011;55841;53.392;10.086;2022-08-18T09:53:14;29.63;;;14.43;;
68825;SDS011;55841;53.392;10.086;2022-08-18T09:55:56;25.08;;;13.70;;
68825;SDS011;55841;53.392;10.086;2022-08-18T10:06:49;25.05;;;13.82;;
68825;SDS011;55841;53.392;10.086;2022-08-18T10:14:48;28.20;;;14.35;;
68825;SDS011;55841;53.392;10.086;2022-08-18T10:17:37;25.23;;;14.18;;
68825;SDS011;55841;53.392;10.086;2022-08-18T10:20:29;26.45;;;14.70;;
68825;SDS011;55841;53.392;10.086;2022-08-18T10:23:11;23.75;;;13.15;;
68825;SDS011;55841;53.392;10.086;2022-08-18T10:31:29;23.50;;;14.10;;
68825;SDS011;55841;53.392;10.086;2022-08-18T10:34:16;23.23;;;13.60;;
68825;SDS011;55841;53.392;10.086;2022-08-18T10:45:18;22.23;;;12.63;;
68825;SDS011;55841;53.392;10.086;2022-08-18T10:47:58;28.65;;;14.90;;
68825;SDS011;55841;53.392;10.086;2022-08-18T10:50:57;22.83;;;13.25;;
68825;SDS011;55841;53.392;10.086;2022-08-18T11:04:23;22.45;;;13.70;;
68825;SDS011;55841;53.392;10.086;2022-08-18T11:06:55;23.77;;;13.68;;
68825;SDS011;55841;53.392;10.086;2022-08-18T11:09:26;20.38;;;12.30;;
68825;SDS011;55841;53.392;10.086;2022-08-18T11:11:54;22.00;;;12.82;;
68825;SDS011;55841;53.392;10.086;2022-08-18T11:14:36;22.88;;;11.40;;
68825;SDS011;55841;53.392;10.086;2022-08-18T11:17:37;23.10;;;12.38;;
68825;SDS011;55841;53.392;10.086;2022-08-18T11:20:16;22.42;;;12.60;;
68825;SDS011;55841;53.392;10.086;2022-08-18T11:22:51;18.70;;;10.77;;
68825;SDS011;55841;53.392;10.086;2022-08-18T11:25:24;17.77;;;11.23;;
68825;SDS011;55841;53.392;10.086;2022-08-18T11:27:52;19.95;;;10.73;;
68825;SDS011;55841;53.392;10.086;2022-08-18T11:30:18;18.42;;;10.65;;
68825;SDS011;55841;53.392;10.086;2022-08-18T11:32:44;19.52;;;10.68;;
68825;SDS011;55841;53.392;10.086;2022-08-18T11:35:17;16.90;;;9.45;;
68825;SDS011;55841;53.392;10.086;2022-08-18T11:37:48;18.63;;;10.48;;
68825;SDS011;55841;53.392;10.086;2022-08-18T11:53:24;17.67;;;9.40;;
68825;SDS011;55841;53.392;10.086;2022-08-18T11:56:16;16.98;;;8.05;;
68825;SDS011;55841;53.392;10.086;2022-08-18T12:09:33;14.68;;;7.78;;
68825;SDS011;55841;53.392;10.086;2022-08-18T12:12:19;19.27;;;8.63;;
68825;SDS011;55841;53.392;10.086;2022-08-18T12:14:58;15.93;;;8.20;;
68825;SDS011;55841;53.392;10.086;2022-08-18T12:17:48;16.67;;;8.27;;
68825;SDS011;55841;53.392;10.086;2022-08-18T12:20:14;15.52;;;7.25;;
68825;SDS011;55841;53.392;10.086;2022-08-18T12:22:40;13.25;;;7.68;;
68825;SDS011;55841;53.392;10.086;2022-08-18T12:25:09;13.50;;;6.88;;
68825;SDS011;55841;53.392;10.086;2022-08-18T12:27:37;14.32;;;7.25;;
68825;SDS011;55841;53.392;10.086;2022-08-18T12:30:04;16.70;;;8.00;;
68825;SDS011;55841;53.392;10.086;2022-08-18T12:32:31;16.48;;;7.47;;
68825;SDS011;55841;53.392;10.086;2022-08-18T12:34:58;16.58;;;9.23;;
68825;SDS011;55841;53.392;10.086;2022-08-18T12:37:24;15.68;;;7.78;;
68825;SDS011;55841;53.392;10.086;2022-08-18T12:39:54;15.65;;;7.53;;
68825;SDS011;55841;53.392;10.086;2022-08-18T12:42:21;15.80;;;7.40;;
68825;SDS011;55841;53.392;10.086;2022-08-18T12:44:47;14.15;;;7.28;;
68825;SDS011;55841;53.392;10.086;2022-08-18T12:47:14;15.55;;;7.07;;
68825;SDS011;55841;53.392;10.086;2022-08-18T12:49:41;13.23;;;7.15;;
68825;SDS011;55841;53.392;10.086;2022-08-18T12:52:07;14.20;;;6.78;;
68825;SDS011;55841;53.392;10.086;2022-08-18T12:54:34;15.10;;;7.55;;
68825;SDS011;55841;53.392;10.086;2022-08-18T12:57:00;15.52;;;7.22;;
68825;SDS011;55841;53.392;10.086;2022-08-18T12:59:29;13.65;;;6.95;;
68825;SDS011;55841;53.392;10.086;2022-08-18T13:01:55;14.30;;;7.10;;
68825;SDS011;55841;53.392;10.086;2022-08-18T13:04:21;15.82;;;7.05;;
68825;SDS011;55841;53.392;10.086;2022-08-18T13:06:51;13.57;;;6.53;;
68825;SDS011;55841;53.392;10.086;2022-08-18T13:09:18;14.57;;;6.70;;
68825;SDS011;55841;53.392;10.086;2022-08-18T13:11:44;12.43;;;6.10;;
68825;SDS011;55841;53.392;10.086;2022-08-18T13:14:10;11.52;;;6.07;;
68825;SDS011;55841;53.392;10.086;2022-08-18T13:16:38;16.80;;;7.38;;
68825;SDS011;55841;53.392;10.086;2022-08-18T13:19:04;14.30;;;5.55;;
68825;SDS011;55841;53.392;10.086;2022-08-18T13:21:31;12.55;;;6.20;;
68825;SDS011;55841;53.392;10.086;2022-08-18T13:23:56;14.52;;;6.22;;
68825;SDS011;55841;53.392;10.086;2022-08-18T13:26:26;12.50;;;5.63;;
68825;SDS011;55841;53.392;10.086;2022-08-18T13:28:54;13.48;;;6.22;;
68825;SDS011;55841;53.392;10.086;2022-08-18T13:31:19;12.27;;;5.53;;
68825;SDS011;55841;53.392;10.086;2022-08-18T13:33:45;13.80;;;6.15;;
68825;SDS011;55841;53.392;10.086;2022-08-18T13:36:10;10.90;;;5.72;;
68825;SDS011;55841;53.392;10.086;2022-08-18T13:38:36;12.52;;;6.18;;
68825;SDS011;55841;53.392;10.086;2022-08-18T13:41:02;12.82;;;5.63;;
68825;SDS011;55841;53.392;10.086;2022-08-18T13:43:32;10.25;;;5.57;;
68825;SDS011;55841;53.392;10.086;2022-08-18T13:46:00;12.00;;;4.88;;
68825;SDS011;55841;53.392;10.086;2022-08-18T13:48:26;11.48;;;5.68;;
68825;SDS011;55841;53.392;10.086;2022-08-18T13:50:53;11.40;;;6.00;;
68825;SDS011;55841;53.392;10.086;2022-08-18T13:53:19;10.90;;;5.32;;
68825;SDS011;55841;53.392;10.086;2022-08-18T13:55:45;10.63;;;5.25;;
68825;SDS011;55841;53.392;10.086;2022-08-18T13:58:11;10.07;;;4.90;;
68825;SDS011;55841;53.392;10.086;2022-08-18T14:00:37;12.77;;;5.60;;
68825;SDS011;55841;53.392;10.086;2022-08-18T14:03:04;10.38;;;5.05;;
68825;SDS011;55841;53.392;10.086;2022-08-18T14:05:32;11.90;;;5.45;;
68825;SDS011;55841;53.392;10.086;2022-08-18T14:07:58;11.60;;;5.10;;
68825;SDS011;55841;53.392;10.086;2022-08-18T14:10:24;12.32;;;5.45;;
68825;SDS011;55841;53.392;10.086;2022-08-18T14:12:51;12.15;;;5.47;;
68825;SDS011;55841;53.392;10.086;2022-08-18T14:15:19;10.65;;;4.97;;
68825;SDS011;55841;53.392;10.086;2022-08-18T14:17:45;11.90;;;5.53;;
68825;SDS011;55841;53.392;10.086;2022-08-18T14:20:10;12.20;;;5.75;;
68825;SDS011;55841;53.392;10.086;2022-08-18T14:22:36;11.65;;;5.35;;
68825;SDS011;55841;53.392;10.086;2022-08-18T14:25:02;11.38;;;5.28;;
68825;SDS011;55841;53.392;10.086;2022-08-18T14:27:32;12.45;;;5.53;;
68825;SDS011;55841;53.392;10.086;2022-08-18T14:30:00;12.65;;;4.88;;
68825;SDS011;55841;53.392;10.086;2022-08-18T14:32:33;9.95;;;5.20;;
68825;SDS011;55841;53.392;10.086;2022-08-18T14:35:01;9.77;;;4.97;;
68825;SDS011;55841;53.392;10.086;2022-08-18T14:37:28;10.38;;;4.97;;
68825;SDS011;55841;53.392;10.086;2022-08-18T14:39:54;10.98;;;5.18;;
68825;SDS011;55841;53.392;10.086;2022-08-18T14:42:20;11.45;;;5.25;;
68825;SDS011;55841;53.392;10.086;2022-08-18T14:44:46;13.00;;;5.68;;
68825;SDS011;55841;53.392;10.086;2022-08-18T14:47:12;10.52;;;5.00;;
68825;SDS011;55841;53.392;10.086;2022-08-18T14:49:38;14.35;;;5.82;;
68825;SDS011;55841;53.392;10.086;2022-08-18T14:52:03;12.82;;;5.60;;
68825;SDS011;55841;53.392;10.086;2022-08-18T14:54:30;12.40;;;5.97;;
68825;SDS011;55841;53.392;10.086;2022-08-18T14:56:56;10.45;;;5.10;;
68825;SDS011;55841;53.392;10.086;2022-08-18T14:59:23;12.95;;;5.53;;
68825;SDS011;55841;53.392;10.086;2022-08-18T15:01:48;11.20;;;5.45;;
68825;SDS011;55841;53.392;10.086;2022-08-18T15:04:14;13.60;;;6.68;;
68825;SDS011;55841;53.392;10.086;2022-08-18T15:06:39;11.95;;;5.60;;
68825;SDS011;55841;53.392;10.086;2022-08-18T15:09:05;14.63;;;6.82;;
68825;SDS011;55841;53.392;10.086;2022-08-18T15:11:31;12.15;;;6.07;;
68825;SDS011;55841;53.392;10.086;2022-08-18T15:13:56;13.02;;;6.40;;
68825;SDS011;55841;53.392;10.086;2022-08-18T15:16:22;14.00;;;7.38;;
68825;SDS011;55841;53.392;10.086;2022-08-18T15:18:47;15.18;;;8.25;;
68825;SDS011;55841;53.392;10.086;2022-08-18T15:21:13;15.32;;;8.35;;
68825;SDS011;55841;53.392;10.086;2022-08-18T15:23:39;16.02;;;8.05;;
68825;SDS011;55841;53.392;10.086;2022-08-18T15:26:05;14.75;;;7.72;;
68825;SDS011;55841;53.392;10.086;2022-08-18T15:28:31;14.05;;;8.40;;
68825;SDS011;55841;53.392;10.086;2022-08-18T15:30:56;13.68;;;7.75;;
68825;SDS011;55841;53.392;10.086;2022-08-18T15:33:22;13.20;;;7.28;;
68825;SDS011;55841;53.392;10.086;2022-08-18T15:35:48;15.00;;;8.18;;
68825;SDS011;55841;53.392;10.086;2022-08-18T15:38:16;12.57;;;8.32;;
68825;SDS011;55841;53.392;10.086;2022-08-18T15:40:47;14.35;;;7.80;;
68825;SDS011;55841;53.392;10.086;2022-08-18T15:43:14;12.57;;;7.53;;
68825;SDS011;55841;53.392;10.086;2022-08-18T15:45:40;14.35;;;8.02;;
68825;SDS011;55841;53.392;10.086;2022-08-18T15:48:07;14.93;;;8.07;;
68825;SDS011;55841;53.392;10.086;2022-08-18T15:50:33;13.85;;;8.65;;
68825;SDS011;55841;53.392;10.086;2022-08-18T15:53:03;13.50;;;7.88;;
68825;SDS011;55841;53.392;10.086;2022-08-18T15:55:29;15.90;;;7.75;;
68825;SDS011;55841;53.392;10.086;2022-08-18T15:57:57;13.60;;;6.72;;
68825;SDS011;55841;53.392;10.086;2022-08-18T16:00:23;14.65;;;7.70;;
68825;SDS011;55841;53.392;10.086;2022-08-18T16:02:51;12.95;;;6.93;;
68825;SDS011;55841;53.392;10.086;2022-08-18T16:05:19;13.82;;;7.03;;
68825;SDS011;55841;53.392;10.086;2022-08-18T16:07:44;13.00;;;6.80;;
68825;SDS011;55841;53.392;10.086;2022-08-18T16:10:10;12.25;;;6.63;;
68825;SDS011;55841;53.392;10.086;2022-08-18T16:12:36;14.55;;;6.75;;
68825;SDS011;55841;53.392;10.086;2022-08-18T16:15:02;11.93;;;6.22;;
68825;SDS011;55841;53.392;10.086;2022-08-18T16:17:28;12.55;;;6.63;;
68825;SDS011;55841;53.392;10.086;2022-08-18T16:19:54;15.68;;;6.53;;
68825;SDS011;55841;53.392;10.086;2022-08-18T16:22:19;12.07;;;6.28;;
68825;SDS011;55841;53.392;10.086;2022-08-18T16:24:45;12.82;;;6.20;;
68825;SDS011;55841;53.392;10.086;2022-08-18T16:27:10;13.63;;;6.90;;
68825;SDS011;55841;53.392;10.086;2022-08-18T16:29:36;12.75;;;6.05;;
68825;SDS011;55841;53.392;10.086;2022-08-18T16:32:01;12.75;;;6.53;;
68825;SDS011;55841;53.392;10.086;2022-08-18T16:34:27;14.20;;;7.53;;
68825;SDS011;55841;53.392;10.086;2022-08-18T16:36:52;12.75;;;6.45;;
68825;SDS011;55841;53.392;10.086;2022-08-18T16:39:18;13.30;;;6.45;;
68825;SDS011;55841;53.392;10.086;2022-08-18T16:41:43;12.02;;;6.15;;
68825;SDS011;55841;53.392;10.086;2022-08-18T16:44:09;12.65;;;6.72;;
68825;SDS011;55841;53.392;10.086;2022-08-18T16:46:35;11.98;;;5.53;;
68825;SDS011;55841;53.392;10.086;2022-08-18T16:49:01;14.10;;;5.82;;
68825;SDS011;55841;53.392;10.086;2022-08-18T16:51:27;12.93;;;5.43;;
68825;SDS011;55841;53.392;10.086;2022-08-18T16:53:53;13.63;;;5.60;;
68825;SDS011;55841;53.392;10.086;2022-08-18T16:56:20;13.77;;;6.20;;
68825;SDS011;55841;53.392;10.086;2022-08-18T16:58:47;11.15;;;5.55;;
68825;SDS011;55841;53.392;10.086;2022-08-18T17:01:13;12.70;;;5.28;;
68825;SDS011;55841;53.392;10.086;2022-08-18T17:03:38;12.38;;;5.90;;
68825;SDS011;55841;53.392;10.086;2022-08-18T17:06:05;11.63;;;5.68;;
68825;SDS011;55841;53.392;10.086;2022-08-18T17:08:33;12.57;;;5.53;;
68825;SDS011;55841;53.392;10.086;2022-08-18T17:11:10;12.43;;;5.20;;
68825;SDS011;55841;53.392;10.086;2022-08-18T17:13:37;14.15;;;5.20;;